sensor_id;sensor_type;location;lat;lon;timestamp;temperature;humidity
21123;DHT22;10719;48.130;11.630;2023-05-16T00:00:17;10.70;99.90
21123;DHT22;10719;48.130;11.630;2023-05-16T00:02:42;10.60;99.90
21123;DHT22;10719;48.130;11.630;2023-05-16T00:05:08;10.60;99.90
21123;DHT22;10719;48.130;11.630;2023-05-16T00:07:41;10.60;99.90
21123;DHT22;10719;48.130;11.630;2023-05-16T00:10:08;10.60;99.90
21123;DHT22;10719;48.130;11.630;2023-05-16T00:12:33;10.60;99.90
21123;DHT22;10719;48.130;11.630;2023-05-16T00:15:01;10.60;99.90
21123;DHT22;10719;48.130;11.630;2023-05-16T00:17:27;10.50;99.90
21123;DHT22;10719;48.130;11.630;2023-05-16T00:19:53;10.60;99.90
21123;DHT22;10719;48.130;11.630;2023-05-16T00:22:23;10.50;99.90
21123;DHT22;10719;48.130;11.630;2023-05-16T00:24:48;10.60;99.90
21123;DHT22;10719;48.130;11.630;2023-05-16T00:27:14;10.50;99.90
21123;DHT22;10719;48.130;11.630;2023-05-16T00:29:39;10.60;99.90
21123;DHT22;10719;48.130;11.630;2023-05-16T00:32:05;10.60;99.90
21123;DHT22;10719;48.130;11.630;2023-05-16T00:34:33;10.60;99.90
21123;DHT22;10719;48.130;11.630;2023-05-16T00:36:59;10.60;99.90
21123;DHT22;10719;48.130;11.630;2023-05-16T00:39:24;10.50;99.90
21123;DHT22;10719;48.130;11.630;2023-05-16T00:41:50;10.60;99.90
21123;DHT22;10719;48.130;11.630;2023-05-16T00:44:16;10.50;99.90
21123;DHT22;10719;48.130;11.630;2023-05-16T00:46:41;10.60;99.90
21123;DHT22;10719;48.130;11.630;2023-05-16T00:49:09;10.60;99.90
21123;DHT22;10719;48.130;11.630;2023-05-16T00:51:36;10.60;99.90
21123;DHT22;10719;48.130;11.630;2023-05-16T00:54:02;10.50;99.90
21123;DHT22;10719;48.130;11.630;2023-05-16T00:56:29;10.50;99.90
21123;DHT22;10719;48.130;11.630;2023-05-16T00:58:55;10.50;99.90
21123;DHT22;10719;48.130;11.630;2023-05-16T01:01:25;10.50;99.90
21123;DHT22;10719;48.130;11.630;2023-05-16T01:03:52;10.50;99.90
21123;DHT22;10719;48.130;11.630;2023-05-16T01:06:18;10.50;99.90
21123;DHT22;10719;48.130;11.630;2023-05-16T01:08:43;10.50;99.90
21123;DHT22;10719;48.130;11.630;2023-05-16T01:14:25;10.50;99.90
21123;DHT22;10719;48.130;11.630;2023-05-16T01:19:38;10.50;99.90
21123;DHT22;10719;48.130;11.630;2023-05-16T01:27:40;10.40;99.90
21123;DHT22;10719;48.130;11.630;2023-05-16T01:30:14;10.50;99.90
21123;DHT22;10719;48.130;11.630;2023-05-16T01:32:40;10.50;99.90
21123;DHT22;10719;48.130;11.630;2023-05-16T01:35:07;10.50;99.90
21123;DHT22;10719;48.130;11.630;2023-05-16T01:37:37;10.40;99.90
21123;DHT22;10719;48.130;11.630;2023-05-16T01:40:11;10.40;99.90
21123;DHT22;10719;48.130;11.630;2023-05-16T01:42:42;10.40;99.90
21123;DHT22;10719;48.130;11.630;2023-05-16T01:45:14;10.40;99.90
21123;DHT22;10719;48.130;11.630;2023-05-16T01:47:46;10.40;99.90
21123;DHT22;10719;48.130;11.630;2023-05-16T01:50:16;10.40;99.90
21123;DHT22;10719;48.130;11.630;2023-05-16T01:52:58;10.40;99.90
21123;DHT22;10719;48.130;11.630;2023-05-16T01:55:45;10.40;99.90
21123;DHT22;10719;48.130;11.630;2023-05-16T01:58:16;10.40;99.90
21123;DHT22;10719;48.130;11.630;2023-05-16T02:00:42;10.30;99.90
21123;DHT22;10719;48.130;11.630;2023-05-16T02:03:07;10.30;99.90
21123;DHT22;10719;48.130;11.630;2023-05-16T02:05:33;10.40;99.90
21123;DHT22;10719;48.130;11.630;2023-05-16T02:07:59;10.30;99.90
21123;DHT22;10719;48.130;11.630;2023-05-16T02:10:26;10.30;99.90
21123;DHT22;10719;48.130;11.630;2023-05-16T02:12:51;10.30;99.90
21123;DHT22;10719;48.130;11.630;2023-05-16T02:15:18;10.30;99.90
21123;DHT22;10719;48.130;11.630;2023-05-16T02:17:43;10.30;99.90
21123;DHT22;10719;48.130;11.630;2023-05-16T02:20:09;10.30;99.90
21123;DHT22;10719;48.130;11.630;2023-05-16T02:22:36;10.30;99.90
21123;DHT22;10719;48.130;11.630;2023-05-16T02:25:04;10.30;99.90
21123;DHT22;10719;48.130;11.630;2023-05-16T02:27:29;10.30;99.90
21123;DHT22;10719;48.130;11.630;2023-05-16T02:29:55;10.30;99.90
21123;DHT22;10719;48.130;11.630;2023-05-16T02:32:20;10.30;99.90
21123;DHT22;10719;48.130;11.630;2023-05-16T02:34:46;10.30;99.90
21123;DHT22;10719;48.130;11.630;2023-05-16T02:37:12;10.20;99.90
21123;DHT22;10719;48.130;11.630;2023-05-16T02:39:38;10.20;99.90
21123;DHT22;10719;48.130;11.630;2023-05-16T02:42:05;10.20;99.90
21123;DHT22;10719;48.130;11.630;2023-05-16T02:44:31;10.20;99.90
21123;DHT22;10719;48.130;11.630;2023-05-16T02:46:56;10.20;99.90
21123;DHT22;10719;48.130;11.630;2023-05-16T02:49:22;10.20;99.90
21123;DHT22;10719;48.130;11.630;2023-05-16T02:51:48;10.20;99.90
21123;DHT22;10719;48.130;11.630;2023-05-16T02:54:14;10.20;99.90
21123;DHT22;10719;48.130;11.630;2023-05-16T02:56:39;10.20;99.90
21123;DHT22;10719;48.130;11.630;2023-05-16T02:59:05;10.20;99.90
21123;DHT22;10719;48.130;11.630;2023-05-16T03:01:31;10.20;99.90
21123;DHT22;10719;48.130;11.630;2023-05-16T03:03:56;10.20;99.90
21123;DHT22;10719;48.130;11.630;2023-05-16T03:06:22;10.20;99.90
21123;DHT22;10719;48.130;11.630;2023-05-16T03:08:47;10.20;99.90
21123;DHT22;10719;48.130;11.630;2023-05-16T03:11:13;10.20;99.90
21123;DHT22;10719;48.130;11.630;2023-05-16T03:13:39;10.20;99.90
21123;DHT22;10719;48.130;11.630;2023-05-16T03:16:06;10.20;99.90
21123;DHT22;10719;48.130;11.630;2023-05-16T03:18:31;10.10;99.90
21123;DHT22;10719;48.130;11.630;2023-05-16T03:20:57;10.10;99.90
21123;DHT22;10719;48.130;11.630;2023-05-16T03:23:24;10.10;99.90
21123;DHT22;10719;48.130;11.630;2023-05-16T03:25:49;10.10;99.90
21123;DHT22;10719;48.130;11.630;2023-05-16T03:28:16;10.20;99.90
21123;DHT22;10719;48.130;11.630;2023-05-16T03:30:42;10.10;99.90
21123;DHT22;10719;48.130;11.630;2023-05-16T03:33:08;10.10;99.90
21123;DHT22;10719;48.130;11.630;2023-05-16T03:35:34;10.10;99.90
21123;DHT22;10719;48.130;11.630;2023-05-16T03:38:01;10.10;99.90
21123;DHT22;10719;48.130;11.630;2023-05-16T03:40:29;10.10;99.90
21123;DHT22;10719;48.130;11.630;2023-05-16T03:42:55;10.10;99.90
21123;DHT22;10719;48.130;11.630;2023-05-16T03:45:21;10.10;99.90
21123;DHT22;10719;48.130;11.630;2023-05-16T03:47:50;10.10;99.90
21123;DHT22;10719;48.130;11.630;2023-05-16T03:50:16;10.20;99.90
21123;DHT22;10719;48.130;11.630;2023-05-16T03:52:42;10.20;99.90
21123;DHT22;10719;48.130;11.630;2023-05-16T03:55:08;10.20;99.90
21123;DHT22;10719;48.130;11.630;2023-05-16T03:57:36;10.20;99.90
21123;DHT22;10719;48.130;11.630;2023-05-16T04:00:03;10.20;99.90
21123;DHT22;10719;48.130;11.630;2023-05-16T04:02:32;10.20;99.90
21123;DHT22;10719;48.130;11.630;2023-05-16T04:04:57;10.20;99.90
21123;DHT22;10719;48.130;11.630;2023-05-16T04:07:23;10.10;99.90
21123;DHT22;10719;48.130;11.630;2023-05-16T04:09:49;10.20;99.90
21123;DHT22;10719;48.130;11.630;2023-05-16T04:12:15;10.30;99.90
21123;DHT22;10719;48.130;11.630;2023-05-16T04:14:40;10.30;99.90
21123;DHT22;10719;48.130;11.630;2023-05-16T04:17:06;10.30;99.90
21123;DHT22;10719;48.130;11.630;2023-05-16T04:19:31;10.20;99.90
21123;DHT22;10719;48.130;11.630;2023-05-16T04:21:57;10.10;99.90
21123;DHT22;10719;48.130;11.630;2023-05-16T04:24:23;10.20;99.90
21123;DHT22;10719;48.130;11.630;2023-05-16T04:26:51;10.20;99.90
21123;DHT22;10719;48.130;11.630;2023-05-16T04:29:16;10.20;99.90
21123;DHT22;10719;48.130;11.630;2023-05-16T04:31:42;10.20;99.90
21123;DHT22;10719;48.130;11.630;2023-05-16T04:34:08;10.20;99.90
21123;DHT22;10719;48.130;11.630;2023-05-16T04:36:33;10.20;99.90
21123;DHT22;10719;48.130;11.630;2023-05-16T04:38:59;10.20;99.90
21123;DHT22;10719;48.130;11.630;2023-05-16T04:41:25;10.20;99.90
21123;DHT22;10719;48.130;11.630;2023-05-16T04:43:50;10.30;99.90
21123;DHT22;10719;48.130;11.630;2023-05-16T04:46:17;10.30;99.90
21123;DHT22;10719;48.130;11.630;2023-05-16T04:48:42;10.30;99.90
21123;DHT22;10719;48.130;11.630;2023-05-16T04:51:08;10.20;99.90
21123;DHT22;10719;48.130;11.630;2023-05-16T04:53:33;10.30;99.90
21123;DHT22;10719;48.130;11.630;2023-05-16T04:55:59;10.30;99.90
21123;DHT22;10719;48.130;11.630;2023-05-16T04:58:25;10.20;99.90
21123;DHT22;10719;48.130;11.630;2023-05-16T05:00:51;10.30;99.90
21123;DHT22;10719;48.130;11.630;2023-05-16T05:03:17;10.30;99.90
21123;DHT22;10719;48.130;11.630;2023-05-16T05:05:42;10.20;99.90
21123;DHT22;10719;48.130;11.630;2023-05-16T05:08:08;10.30;99.90
21123;DHT22;10719;48.130;11.630;2023-05-16T05:10:34;10.30;99.90
21123;DHT22;10719;48.130;11.630;2023-05-16T05:13:00;10.30;99.90
21123;DHT22;10719;48.130;11.630;2023-05-16T05:15:26;10.40;99.90
21123;DHT22;10719;48.130;11.630;2023-05-16T05:17:52;10.30;99.90
21123;DHT22;10719;48.130;11.630;2023-05-16T05:20:17;10.30;99.90
21123;DHT22;10719;48.130;11.630;2023-05-16T05:22:43;10.30;99.90
21123;DHT22;10719;48.130;11.630;2023-05-16T05:25:09;10.30;99.90
21123;DHT22;10719;48.130;11.630;2023-05-16T05:27:35;10.30;99.90
21123;DHT22;10719;48.130;11.630;2023-05-16T05:30:01;10.30;99.90
21123;DHT22;10719;48.130;11.630;2023-05-16T05:32:27;10.30;99.90
21123;DHT22;10719;48.130;11.630;2023-05-16T05:34:52;10.30;99.90
21123;DHT22;10719;48.130;11.630;2023-05-16T05:37:18;10.30;99.90
21123;DHT22;10719;48.130;11.630;2023-05-16T05:39:43;10.20;99.90
21123;DHT22;10719;48.130;11.630;2023-05-16T05:42:09;10.30;99.90
21123;DHT22;10719;48.130;11.630;2023-05-16T05:44:36;10.30;99.90
21123;DHT22;10719;48.130;11.630;2023-05-16T05:47:02;10.30;99.90
21123;DHT22;10719;48.130;11.630;2023-05-16T05:49:28;10.40;99.90
21123;DHT22;10719;48.130;11.630;2023-05-16T05:51:55;10.40;99.90
21123;DHT22;10719;48.130;11.630;2023-05-16T05:54:20;10.50;99.90
21123;DHT22;10719;48.130;11.630;2023-05-16T05:56:46;10.50;99.90
21123;DHT22;10719;48.130;11.630;2023-05-16T05:59:12;10.60;99.90
21123;DHT22;10719;48.130;11.630;2023-05-16T06:01:38;10.60;99.90
21123;DHT22;10719;48.130;11.630;2023-05-16T06:04:04;10.60;99.90
21123;DHT22;10719;48.130;11.630;2023-05-16T06:06:30;10.70;99.90
21123;DHT22;10719;48.130;11.630;2023-05-16T06:08:56;10.80;99.90
21123;DHT22;10719;48.130;11.630;2023-05-16T06:11:22;10.80;99.90
21123;DHT22;10719;48.130;11.630;2023-05-16T06:13:50;10.90;99.90
21123;DHT22;10719;48.130;11.630;2023-05-16T06:16:15;10.90;99.90
21123;DHT22;10719;48.130;11.630;2023-05-16T06:18:41;10.90;99.90
21123;DHT22;10719;48.130;11.630;2023-05-16T06:21:06;11.00;99.90
21123;DHT22;10719;48.130;11.630;2023-05-16T06:23:32;11.00;99.90
21123;DHT22;10719;48.130;11.630;2023-05-16T06:25:58;11.00;99.90
21123;DHT22;10719;48.130;11.630;2023-05-16T06:28:23;11.00;99.90
21123;DHT22;10719;48.130;11.630;2023-05-16T06:30:49;10.80;99.90
21123;DHT22;10719;48.130;11.630;2023-05-16T06:33:16;10.90;99.90
21123;DHT22;10719;48.130;11.630;2023-05-16T06:35:42;11.00;99.90
21123;DHT22;10719;48.130;11.630;2023-05-16T06:38:08;11.20;99.90
21123;DHT22;10719;48.130;11.630;2023-05-16T06:40:33;11.30;99.90
21123;DHT22;10719;48.130;11.630;2023-05-16T06:42:59;11.30;99.90
21123;DHT22;10719;48.130;11.630;2023-05-16T06:45:25;11.50;99.90
21123;DHT22;10719;48.130;11.630;2023-05-16T06:47:50;11.50;99.90
21123;DHT22;10719;48.130;11.630;2023-05-16T06:50:16;11.50;99.90
21123;DHT22;10719;48.130;11.630;2023-05-16T06:52:42;11.30;99.90
21123;DHT22;10719;48.130;11.630;2023-05-16T06:55:08;11.30;99.90
21123;DHT22;10719;48.130;11.630;2023-05-16T06:57:33;11.30;99.90
21123;DHT22;10719;48.130;11.630;2023-05-16T06:59:59;11.20;99.90
21123;DHT22;10719;48.130;11.630;2023-05-16T07:02:24;11.30;99.90
21123;DHT22;10719;48.130;11.630;2023-05-16T07:04:50;11.40;99.90
21123;DHT22;10719;48.130;11.630;2023-05-16T07:07:16;11.50;99.90
21123;DHT22;10719;48.130;11.630;2023-05-16T07:09:42;11.60;99.90
21123;DHT22;10719;48.130;11.630;2023-05-16T07:12:08;11.70;99.90
21123;DHT22;10719;48.130;11.630;2023-05-16T07:14:33;11.70;99.90
21123;DHT22;10719;48.130;11.630;2023-05-16T07:16:59;11.70;99.90
21123;DHT22;10719;48.130;11.630;2023-05-16T07:19:25;11.70;99.90
21123;DHT22;10719;48.130;11.630;2023-05-16T07:21:50;11.50;99.90
21123;DHT22;10719;48.130;11.630;2023-05-16T07:24:16;11.40;99.90
21123;DHT22;10719;48.130;11.630;2023-05-16T07:26:42;11.30;99.90
21123;DHT22;10719;48.130;11.630;2023-05-16T07:29:07;11.10;99.90
21123;DHT22;10719;48.130;11.630;2023-05-16T07:31:33;11.20;99.90
21123;DHT22;10719;48.130;11.630;2023-05-16T07:33:59;11.10;99.90
21123;DHT22;10719;48.130;11.630;2023-05-16T07:36:25;11.10;99.90
21123;DHT22;10719;48.130;11.630;2023-05-16T07:38:50;11.10;99.90
21123;DHT22;10719;48.130;11.630;2023-05-16T07:41:16;11.00;99.90
21123;DHT22;10719;48.130;11.630;2023-05-16T07:43:42;11.00;99.90
21123;DHT22;10719;48.130;11.630;2023-05-16T07:46:07;10.90;99.90
21123;DHT22;10719;48.130;11.630;2023-05-16T07:48:33;10.80;99.90
21123;DHT22;10719;48.130;11.630;2023-05-16T07:50:58;10.90;99.90
21123;DHT22;10719;48.130;11.630;2023-05-16T07:53:24;10.80;99.90
21123;DHT22;10719;48.130;11.630;2023-05-16T07:55:50;10.90;99.90
21123;DHT22;10719;48.130;11.630;2023-05-16T07:58:15;10.90;99.90
21123;DHT22;10719;48.130;11.630;2023-05-16T08:00:41;11.00;99.90
21123;DHT22;10719;48.130;11.630;2023-05-16T08:03:07;11.00;99.90
21123;DHT22;10719;48.130;11.630;2023-05-16T08:05:32;11.00;99.90
21123;DHT22;10719;48.130;11.630;2023-05-16T08:07:58;11.00;99.90
21123;DHT22;10719;48.130;11.630;2023-05-16T08:10:23;11.10;99.90
21123;DHT22;10719;48.130;11.630;2023-05-16T08:12:49;11.10;99.90
21123;DHT22;10719;48.130;11.630;2023-05-16T08:15:15;11.10;99.90
21123;DHT22;10719;48.130;11.630;2023-05-16T08:17:40;11.20;99.90
21123;DHT22;10719;48.130;11.630;2023-05-16T08:20:07;11.30;99.90
21123;DHT22;10719;48.130;11.630;2023-05-16T08:22:33;11.40;99.90
21123;DHT22;10719;48.130;11.630;2023-05-16T08:24:58;11.40;99.90
21123;DHT22;10719;48.130;11.630;2023-05-16T08:27:26;11.50;99.90
21123;DHT22;10719;48.130;11.630;2023-05-16T08:29:51;11.50;99.90
21123;DHT22;10719;48.130;11.630;2023-05-16T08:32:17;11.50;99.90
21123;DHT22;10719;48.130;11.630;2023-05-16T08:34:43;11.50;99.90
21123;DHT22;10719;48.130;11.630;2023-05-16T08:37:08;11.50;99.90
21123;DHT22;10719;48.130;11.630;2023-05-16T08:39:37;11.40;99.90
21123;DHT22;10719;48.130;11.630;2023-05-16T08:42:03;11.30;99.90
21123;DHT22;10719;48.130;11.630;2023-05-16T08:44:29;11.40;99.90
21123;DHT22;10719;48.130;11.630;2023-05-16T08:46:56;11.50;99.90
21123;DHT22;10719;48.130;11.630;2023-05-16T08:49:22;11.50;99.90
21123;DHT22;10719;48.130;11.630;2023-05-16T08:51:55;11.50;99.90
21123;DHT22;10719;48.130;11.630;2023-05-16T08:54:21;11.70;99.90
21123;DHT22;10719;48.130;11.630;2023-05-16T08:56:48;11.90;99.90
21123;DHT22;10719;48.130;11.630;2023-05-16T08:59:15;12.00;99.90
21123;DHT22;10719;48.130;11.630;2023-05-16T09:01:41;12.10;99.90
21123;DHT22;10719;48.130;11.630;2023-05-16T09:04:07;12.20;99.90
21123;DHT22;10719;48.130;11.630;2023-05-16T09:06:34;12.10;99.90
21123;DHT22;10719;48.130;11.630;2023-05-16T09:09:00;12.10;99.90
21123;DHT22;10719;48.130;11.630;2023-05-16T09:11:27;12.10;99.90
21123;DHT22;10719;48.130;11.630;2023-05-16T09:13:53;12.20;99.90
21123;DHT22;10719;48.130;11.630;2023-05-16T09:16:19;12.50;99.90
21123;DHT22;10719;48.130;11.630;2023-05-16T09:18:55;12.60;99.90
21123;DHT22;10719;48.130;11.630;2023-05-16T09:21:25;12.90;99.90
21123;DHT22;10719;48.130;11.630;2023-05-16T09:23:51;13.10;99.90
21123;DHT22;10719;48.130;11.630;2023-05-16T09:26:17;13.20;99.90
21123;DHT22;10719;48.130;11.630;2023-05-16T09:28:43;13.50;99.90
21123;DHT22;10719;48.130;11.630;2023-05-16T09:31:23;13.80;99.90
21123;DHT22;10719;48.130;11.630;2023-05-16T09:34:00;14.00;99.90
21123;DHT22;10719;48.130;11.630;2023-05-16T09:36:25;14.40;99.90
21123;DHT22;10719;48.130;11.630;2023-05-16T09:38:52;14.30;99.90
21123;DHT22;10719;48.130;11.630;2023-05-16T09:41:17;14.40;99.90
21123;DHT22;10719;48.130;11.630;2023-05-16T09:43:43;14.10;99.90
21123;DHT22;10719;48.130;11.630;2023-05-16T09:46:13;14.20;99.90
21123;DHT22;10719;48.130;11.630;2023-05-16T09:48:46;14.00;99.90
21123;DHT22;10719;48.130;11.630;2023-05-16T09:51:13;13.90;99.90
21123;DHT22;10719;48.130;11.630;2023-05-16T09:53:40;13.80;99.90
21123;DHT22;10719;48.130;11.630;2023-05-16T09:56:13;13.60;99.90
21123;DHT22;10719;48.130;11.630;2023-05-16T09:58:41;13.60;99.90
21123;DHT22;10719;48.130;11.630;2023-05-16T10:01:07;13.80;99.90
21123;DHT22;10719;48.130;11.630;2023-05-16T10:03:35;13.50;99.90
21123;DHT22;10719;48.130;11.630;2023-05-16T10:06:02;13.50;99.90
21123;DHT22;10719;48.130;11.630;2023-05-16T10:08:31;13.50;99.90
21123;DHT22;10719;48.130;11.630;2023-05-16T10:10:57;13.70;99.90
21123;DHT22;10719;48.130;11.630;2023-05-16T10:13:33;13.40;99.90
21123;DHT22;10719;48.130;11.630;2023-05-16T10:16:04;13.40;99.90
21123;DHT22;10719;48.130;11.630;2023-05-16T10:18:31;13.20;99.90
21123;DHT22;10719;48.130;11.630;2023-05-16T10:21:04;13.10;99.90
21123;DHT22;10719;48.130;11.630;2023-05-16T10:23:30;13.10;99.90
21123;DHT22;10719;48.130;11.630;2023-05-16T10:26:00;13.00;99.90
21123;DHT22;10719;48.130;11.630;2023-05-16T10:28:27;13.00;99.90
21123;DHT22;10719;48.130;11.630;2023-05-16T10:30:54;12.90;99.90
21123;DHT22;10719;48.130;11.630;2023-05-16T10:33:20;12.80;99.90
21123;DHT22;10719;48.130;11.630;2023-05-16T10:35:46;12.70;99.90
21123;DHT22;10719;48.130;11.630;2023-05-16T10:38:15;12.60;99.90
21123;DHT22;10719;48.130;11.630;2023-05-16T10:40:42;12.50;99.90
21123;DHT22;10719;48.130;11.630;2023-05-16T10:43:08;12.30;99.90
21123;DHT22;10719;48.130;11.630;2023-05-16T10:45:40;12.20;99.90
21123;DHT22;10719;48.130;11.630;2023-05-16T10:48:06;12.20;99.90
21123;DHT22;10719;48.130;11.630;2023-05-16T10:53:21;12.20;99.90
21123;DHT22;10719;48.130;11.630;2023-05-16T10:56:07;12.10;99.90
21123;DHT22;10719;48.130;11.630;2023-05-16T11:01:28;11.80;99.90
21123;DHT22;10719;48.130;11.630;2023-05-16T11:09:26;11.80;99.90
21123;DHT22;10719;48.130;11.630;2023-05-16T11:17:13;11.90;99.90
21123;DHT22;10719;48.130;11.630;2023-05-16T11:22:21;11.70;99.90
21123;DHT22;10719;48.130;11.630;2023-05-16T11:25:08;11.80;99.90
21123;DHT22;10719;48.130;11.630;2023-05-16T11:27:45;11.80;99.90
21123;DHT22;10719;48.130;11.630;2023-05-16T11:30:15;11.80;99.90
21123;DHT22;10719;48.130;11.630;2023-05-16T11:32:46;11.80;99.90
21123;DHT22;10719;48.130;11.630;2023-05-16T11:35:14;11.80;99.90
21123;DHT22;10719;48.130;11.630;2023-05-16T11:37:42;11.80;99.90
21123;DHT22;10719;48.130;11.630;2023-05-16T11:40:09;11.80;99.90
21123;DHT22;10719;48.130;11.630;2023-05-16T11:42:47;11.80;99.90
21123;DHT22;10719;48.130;11.630;2023-05-16T11:45:17;11.80;99.90
21123;DHT22;10719;48.130;11.630;2023-05-16T11:47:44;11.70;99.90
21123;DHT22;10719;48.130;11.630;2023-05-16T11:52:38;11.60;99.90
21123;DHT22;10719;48.130;11.630;2023-05-16T11:55:05;11.70;99.90
21123;DHT22;10719;48.130;11.630;2023-05-16T11:57:32;11.80;99.90
21123;DHT22;10719;48.130;11.630;2023-05-16T12:00:13;11.80;99.90
21123;DHT22;10719;48.130;11.630;2023-05-16T12:02:40;11.80;99.90
21123;DHT22;10719;48.130;11.630;2023-05-16T12:05:07;12.10;99.90
21123;DHT22;10719;48.130;11.630;2023-05-16T12:07:34;12.20;99.90
21123;DHT22;10719;48.130;11.630;2023-05-16T12:10:06;12.40;99.90
21123;DHT22;10719;48.130;11.630;2023-05-16T12:12:33;12.70;99.90
21123;DHT22;10719;48.130;11.630;2023-05-16T12:15:01;12.60;99.90
21123;DHT22;10719;48.130;11.630;2023-05-16T12:17:28;12.70;99.90
21123;DHT22;10719;48.130;11.630;2023-05-16T12:19:54;12.70;99.90
21123;DHT22;10719;48.130;11.630;2023-05-16T12:22:20;12.90;99.90
21123;DHT22;10719;48.130;11.630;2023-05-16T12:24:46;12.90;99.90
21123;DHT22;10719;48.130;11.630;2023-05-16T12:27:11;13.10;99.90
21123;DHT22;10719;48.130;11.630;2023-05-16T12:29:37;13.00;99.90
21123;DHT22;10719;48.130;11.630;2023-05-16T12:32:03;13.10;99.90
21123;DHT22;10719;48.130;11.630;2023-05-16T12:34:32;13.30;99.90
21123;DHT22;10719;48.130;11.630;2023-05-16T12:36:58;13.40;99.90
21123;DHT22;10719;48.130;11.630;2023-05-16T12:39:24;13.80;99.90
21123;DHT22;10719;48.130;11.630;2023-05-16T12:41:49;13.60;99.90
21123;DHT22;10719;48.130;11.630;2023-05-16T12:44:17;13.60;99.90
21123;DHT22;10719;48.130;11.630;2023-05-16T12:46:48;13.70;99.90
21123;DHT22;10719;48.130;11.630;2023-05-16T12:49:18;14.00;99.90
21123;DHT22;10719;48.130;11.630;2023-05-16T12:51:54;13.90;99.90
21123;DHT22;10719;48.130;11.630;2023-05-16T12:54:21;13.60;99.90
21123;DHT22;10719;48.130;11.630;2023-05-16T12:56:47;13.80;99.90
21123;DHT22;10719;48.130;11.630;2023-05-16T12:59:13;13.90;99.90
21123;DHT22;10719;48.130;11.630;2023-05-16T13:01:39;14.10;99.90
21123;DHT22;10719;48.130;11.630;2023-05-16T13:04:06;14.00;99.90
21123;DHT22;10719;48.130;11.630;2023-05-16T13:06:32;13.80;99.90
21123;DHT22;10719;48.130;11.630;2023-05-16T13:08:58;13.70;99.90
21123;DHT22;10719;48.130;11.630;2023-05-16T13:11:24;13.60;99.90
21123;DHT22;10719;48.130;11.630;2023-05-16T13:13:51;13.70;99.90
21123;DHT22;10719;48.130;11.630;2023-05-16T13:16:17;13.70;99.90
21123;DHT22;10719;48.130;11.630;2023-05-16T13:18:42;14.00;99.90
21123;DHT22;10719;48.130;11.630;2023-05-16T13:21:08;14.10;99.90
21123;DHT22;10719;48.130;11.630;2023-05-16T13:23:33;14.10;99.90
21123;DHT22;10719;48.130;11.630;2023-05-16T13:25:59;14.10;99.90
21123;DHT22;10719;48.130;11.630;2023-05-16T13:28:25;14.10;99.90
21123;DHT22;10719;48.130;11.630;2023-05-16T13:30:50;14.30;99.90
21123;DHT22;10719;48.130;11.630;2023-05-16T13:33:16;14.10;99.90
21123;DHT22;10719;48.130;11.630;2023-05-16T13:35:42;14.00;99.90
21123;DHT22;10719;48.130;11.630;2023-05-16T13:38:08;13.90;99.90
21123;DHT22;10719;48.130;11.630;2023-05-16T13:40:34;13.90;99.90
21123;DHT22;10719;48.130;11.630;2023-05-16T13:43:01;13.70;99.90
21123;DHT22;10719;48.130;11.630;2023-05-16T13:45:27;13.40;99.90
21123;DHT22;10719;48.130;11.630;2023-05-16T13:47:52;12.70;99.90
21123;DHT22;10719;48.130;11.630;2023-05-16T13:50:18;12.30;99.90
21123;DHT22;10719;48.130;11.630;2023-05-16T13:52:44;12.10;99.90
21123;DHT22;10719;48.130;11.630;2023-05-16T13:55:09;11.90;99.90
21123;DHT22;10719;48.130;11.630;2023-05-16T13:57:35;11.70;99.90
21123;DHT22;10719;48.130;11.630;2023-05-16T14:00:02;11.60;99.90
21123;DHT22;10719;48.130;11.630;2023-05-16T14:02:37;11.40;99.90
21123;DHT22;10719;48.130;11.630;2023-05-16T14:05:04;11.30;99.90
21123;DHT22;10719;48.130;11.630;2023-05-16T14:07:29;11.10;99.90
21123;DHT22;10719;48.130;11.630;2023-05-16T14:09:55;10.90;99.90
21123;DHT22;10719;48.130;11.630;2023-05-16T14:12:20;10.80;99.90
21123;DHT22;10719;48.130;11.630;2023-05-16T14:14:46;10.70;99.90
21123;DHT22;10719;48.130;11.630;2023-05-16T14:17:11;10.70;99.90
21123;DHT22;10719;48.130;11.630;2023-05-16T14:19:37;10.70;99.90
21123;DHT22;10719;48.130;11.630;2023-05-16T14:22:03;10.70;99.90
21123;DHT22;10719;48.130;11.630;2023-05-16T14:24:28;10.70;99.90
21123;DHT22;10719;48.130;11.630;2023-05-16T14:26:54;10.70;99.90
21123;DHT22;10719;48.130;11.630;2023-05-16T14:29:20;10.70;99.90
21123;DHT22;10719;48.130;11.630;2023-05-16T14:31:46;10.70;99.90
21123;DHT22;10719;48.130;11.630;2023-05-16T14:34:11;10.80;99.90
21123;DHT22;10719;48.130;11.630;2023-05-16T14:36:37;10.70;99.90
21123;DHT22;10719;48.130;11.630;2023-05-16T14:39:02;10.70;99.90
21123;DHT22;10719;48.130;11.630;2023-05-16T14:41:28;10.90;99.90
21123;DHT22;10719;48.130;11.630;2023-05-16T14:43:54;10.70;99.90
21123;DHT22;10719;48.130;11.630;2023-05-16T14:46:20;10.70;99.90
21123;DHT22;10719;48.130;11.630;2023-05-16T14:48:46;10.70;99.90
21123;DHT22;10719;48.130;11.630;2023-05-16T14:51:11;10.70;99.90
21123;DHT22;10719;48.130;11.630;2023-05-16T14:53:37;10.80;99.90
21123;DHT22;10719;48.130;11.630;2023-05-16T14:56:03;10.70;99.90
21123;DHT22;10719;48.130;11.630;2023-05-16T14:58:29;10.80;99.90
21123;DHT22;10719;48.130;11.630;2023-05-16T15:00:55;10.80;99.90
21123;DHT22;10719;48.130;11.630;2023-05-16T15:03:21;10.90;99.90
21123;DHT22;10719;48.130;11.630;2023-05-16T15:05:47;10.80;99.90
21123;DHT22;10719;48.130;11.630;2023-05-16T15:08:12;10.80;99.90
21123;DHT22;10719;48.130;11.630;2023-05-16T15:10:38;10.80;99.90
21123;DHT22;10719;48.130;11.630;2023-05-16T15:13:04;10.80;99.90
21123;DHT22;10719;48.130;11.630;2023-05-16T15:15:29;10.80;99.90
21123;DHT22;10719;48.130;11.630;2023-05-16T15:17:55;10.80;99.90
21123;DHT22;10719;48.130;11.630;2023-05-16T15:20:21;10.80;99.90
21123;DHT22;10719;48.130;11.630;2023-05-16T15:22:46;10.80;99.90
21123;DHT22;10719;48.130;11.630;2023-05-16T15:25:13;10.70;99.90
21123;DHT22;10719;48.130;11.630;2023-05-16T15:27:38;10.70;99.90
21123;DHT22;10719;48.130;11.630;2023-05-16T15:30:04;10.70;99.90
21123;DHT22;10719;48.130;11.630;2023-05-16T15:32:30;10.70;99.90
21123;DHT22;10719;48.130;11.630;2023-05-16T15:34:56;10.70;99.90
21123;DHT22;10719;48.130;11.630;2023-05-16T15:37:22;10.70;99.90
21123;DHT22;10719;48.130;11.630;2023-05-16T15:39:47;10.70;99.90
21123;DHT22;10719;48.130;11.630;2023-05-16T15:42:13;10.70;99.90
21123;DHT22;10719;48.130;11.630;2023-05-16T15:44:39;10.60;99.90